Time;durP1;ratioP1;P1;durP2;ratioP2;P2;SDS_P1;SDS_P2;PMS_P1;PMS_P2;Temp;Humidity;BMP_temperature;BMP_pressure;BME280_temperature;BME280_humidity;BME280_pressure;Samples;Min_cycle;Max_cycle;Signal;HPM_P1;HPM_P2
2023/07/25 00:01:06;;;;;;;11.20;6.80;;;;;;;23.57;50.65;99702.91;106153;1259;60368;-85
2023/07/25 00:03:34;;;;;;;13.60;7.00;;;;;;;23.50;51.10;99696.70;106599;1254;64976;-81
2023/07/25 00:06:03;;;;;;;9.70;6.60;;;;;;;23.45;51.72;99692.14;106240;1254;61387;-84
2023/07/25 00:08:31;;;;;;;8.90;6.60;;;;;;;23.40;51.88;99690.06;106214;1259;62488;-91
2023/07/25 00:11:00;;;;;;;9.40;6.80;;;;;;;23.35;52.09;99686.70;106149;1256;60434;-85
2023/07/25 00:13:27;;;;;;;10.00;6.70;;;;;;;23.28;52.15;99685.80;106149;1251;60646;-88
2023/07/25 00:15:55;;;;;;;12.50;7.50;;;;;;;23.22;52.20;99682.02;106007;1259;63791;-83
2023/07/25 00:18:22;;;;;;;9.90;6.50;;;;;;;23.18;52.04;99676.39;106128;1257;61510;-85
2023/07/25 00:20:50;;;;;;;10.80;6.90;;;;;;;23.15;52.38;99676.98;106154;1257;62461;-89
2023/07/25 00:23:17;;;;;;;8.80;6.00;;;;;;;23.11;52.52;99676.86;106202;1253;60498;-88
2023/07/25 00:25:44;;;;;;;10.30;7.00;;;;;;;23.06;52.67;99676.56;106157;1251;60409;-86
2023/07/25 00:28:12;;;;;;;10.80;7.10;;;;;;;23.01;52.89;99673.52;106319;1251;65029;-85
2023/07/25 00:30:39;;;;;;;11.20;7.10;;;;;;;22.96;52.87;99670.09;106623;1256;60494;-83
2023/07/25 00:33:07;;;;;;;10.10;7.00;;;;;;;22.91;52.95;99665.44;106148;1257;62649;-82
2023/07/25 00:35:35;;;;;;;10.40;7.30;;;;;;;22.86;52.89;99663.63;106206;1253;60531;-84
2023/07/25 00:38:04;;;;;;;9.80;7.00;;;;;;;22.82;53.02;99661.73;106547;1258;60360;-84
2023/07/25 00:40:31;;;;;;;10.60;6.50;;;;;;;22.78;52.90;99657.23;106117;1257;63622;-82
2023/07/25 00:43:00;;;;;;;9.80;6.30;;;;;;;22.75;53.02;99653.38;106654;1256;60387;-83
2023/07/25 00:45:27;;;;;;;9.90;6.90;;;;;;;22.72;52.87;99648.25;106293;1257;62705;-85
2023/07/25 00:47:56;;;;;;;10.20;7.20;;;;;;;22.69;52.85;99646.55;106535;1257;60567;-86
2023/07/25 00:50:23;;;;;;;10.10;6.90;;;;;;;22.67;52.86;99648.33;105902;1251;60444;-84
2023/07/25 00:52:51;;;;;;;10.50;7.20;;;;;;;22.64;52.70;99646.91;106178;1253;63666;-88
2023/07/25 00:55:18;;;;;;;11.20;7.20;;;;;;;22.61;52.45;99644.14;106637;1254;60562;-88
2023/07/25 00:57:45;;;;;;;15.50;7.40;;;;;;;22.58;52.56;99642.35;106032;1265;62612;-87
2023/07/25 01:00:13;;;;;;;11.00;7.10;;;;;;;22.55;52.37;99638.86;105920;1251;60662;-91
2023/07/25 01:02:41;;;;;;;12.50;7.30;;;;;;;22.53;52.40;99643.13;105978;1257;60556;-90
2023/07/25 01:05:09;;;;;;;12.40;7.00;;;;;;;22.50;52.40;99640.84;106160;1251;63617;-88
2023/07/25 01:07:38;;;;;;;10.60;6.90;;;;;;;22.48;52.67;99640.33;106017;1251;60555;-82
2023/07/25 01:10:07;;;;;;;11.10;7.60;;;;;;;22.44;52.46;99644.04;107148;1259;71819;-82
2023/07/25 01:12:39;;;;;;;11.80;7.70;;;;;;;22.41;52.54;99646.78;106277;1251;60518;-87
2023/07/25 01:15:07;;;;;;;12.50;7.40;;;;;;;22.38;52.72;99650.76;106555;1260;60329;-87
2023/07/25 01:17:35;;;;;;;13.80;7.50;;;;;;;22.35;52.82;99650.59;106077;1256;64886;-83
2023/07/25 01:20:02;;;;;;;12.20;7.40;;;;;;;22.30;52.96;99647.31;105989;1253;60591;-84
2023/07/25 01:22:30;;;;;;;11.80;7.30;;;;;;;22.26;52.99;99647.69;106636;1252;62631;-81
2023/07/25 01:24:58;;;;;;;12.40;8.00;;;;;;;22.22;53.17;99649.33;106000;1260;60549;-84
2023/07/25 01:27:25;;;;;;;10.50;6.50;;;;;;;22.18;53.23;99651.28;105958;1251;60538;-86
2023/07/25 01:29:53;;;;;;;9.80;7.00;;;;;;;22.13;53.51;99647.69;106027;1257;64895;-84
2023/07/25 01:32:20;;;;;;;10.00;7.50;;;;;;;22.08;53.42;99645.13;106746;1259;60549;-84
2023/07/25 01:34:48;;;;;;;10.50;7.50;;;;;;;22.05;53.57;99640.98;105941;1257;63752;-82
2023/07/25 01:37:15;;;;;;;11.50;7.30;;;;;;;22.01;53.58;99638.66;106374;1251;60637;-81
2023/07/25 01:39:43;;;;;;;16.40;7.20;;;;;;;21.96;53.61;99636.48;106527;1256;60364;-82
2023/07/25 01:42:11;;;;;;;12.20;8.00;;;;;;;21.88;53.59;99636.84;106120;1257;64899;-81
2023/07/25 01:44:38;;;;;;;16.70;7.40;;;;;;;21.88;53.41;99643.61;106874;1251;61362;-84
2023/07/25 01:47:06;;;;;;;13.40;7.90;;;;;;;21.87;53.42;99650.52;105829;1251;63667;-85
2023/07/25 01:49:33;;;;;;;13.00;8.00;;;;;;;21.82;53.52;99648.96;105989;1259;60653;-84
2023/07/25 01:52:01;;;;;;;11.10;7.30;;;;;;;21.79;53.40;99648.08;105988;1251;60395;-84
2023/07/25 01:54:28;;;;;;;12.20;7.50;;;;;;;21.76;53.61;99648.66;106368;1253;64835;-85
2023/07/25 01:56:55;;;;;;;10.90;7.90;;;;;;;21.76;53.67;99646.81;106604;1257;69030;-84
2023/07/25 01:59:23;;;;;;;10.80;7.30;;;;;;;21.75;53.74;99646.44;106387;1257;63651;-84
2023/07/25 02:01:50;;;;;;;11.20;6.80;;;;;;;21.73;53.71;99641.47;106475;1252;60389;-86
2023/07/25 02:04:18;;;;;;;10.70;7.30;;;;;;;21.71;53.85;99640.13;106149;1257;60525;-85
2023/07/25 02:06:45;;;;;;;12.40;8.00;;;;;;;21.68;53.87;99639.30;106163;1254;64858;-84
2023/07/25 02:09:13;;;;;;;10.80;6.80;;;;;;;21.65;54.04;99640.15;106601;1259;61305;-84
2023/07/25 02:11:40;;;;;;;11.60;6.90;;;;;;;21.66;53.88;99642.86;106553;1257;62655;-83
2023/07/25 02:14:08;;;;;;;10.90;7.10;;;;;;;21.68;53.99;99644.61;106324;1254;60514;-86
2023/07/25 02:16:37;;;;;;;11.10;7.40;;;;;;;21.68;54.08;99642.80;106860;1251;60440;-82
2023/07/25 02:19:05;;;;;;;11.90;7.80;;;;;;;21.68;54.16;99639.80;106747;1254;64941;-83
2023/07/25 02:21:33;;;;;;;12.00;7.70;;;;;;;21.69;54.28;99642.73;106092;1251;70276;-84
2023/07/25 02:24:01;;;;;;;10.40;7.30;;;;;;;21.68;54.43;99645.15;106416;1252;63674;-85
2023/07/25 02:26:28;;;;;;;10.60;8.10;;;;;;;21.67;54.48;99640.13;105992;1259;60554;-84
2023/07/25 02:28:56;;;;;;;10.40;7.20;;;;;;;21.64;54.69;99639.33;107542;1253;60286;-84
2023/07/25 02:31:24;;;;;;;9.30;6.70;;;;;;;21.61;54.73;99641.00;107570;1257;64473;-83
2023/07/25 02:33:51;;;;;;;10.40;7.20;;;;;;;21.57;54.65;99642.62;108148;1251;60467;-85
2023/07/25 02:36:19;;;;;;;12.80;7.50;;;;;;;21.54;54.65;99638.06;109154;1251;62449;-83
2023/07/25 02:38:46;;;;;;;9.50;7.20;;;;;;;21.51;54.79;99636.05;108542;1251;60437;-85
2023/07/25 02:41:16;;;;;;;10.70;8.00;;;;;;;21.50;54.90;99629.48;107608;1251;60348;-88
2023/07/25 02:43:43;;;;;;;10.20;7.80;;;;;;;21.50;54.91;99627.17;106586;1251;63630;-87
2023/07/25 02:46:11;;;;;;;11.30;7.20;;;;;;;21.51;54.89;99621.69;106177;1260;61458;-91
2023/07/25 02:48:40;;;;;;;11.60;7.70;;;;;;;21.52;55.00;99619.98;106474;1259;63669;-84
2023/07/25 02:51:08;;;;;;;10.00;7.30;;;;;;;21.54;55.13;99615.48;106008;1254;60470;-86
2023/07/25 02:53:36;;;;;;;11.00;7.70;;;;;;;21.59;55.29;99614.27;106066;1259;60563;-90
2023/07/25 02:56:03;;;;;;;10.90;6.40;;;;;;;21.64;55.04;99617.09;107644;1254;64832;-87
2023/07/25 02:58:31;;;;;;;12.60;7.50;;;;;;;21.68;55.05;99613.07;106551;1260;60427;-93
2023/07/25 03:00:59;;;;;;;11.60;7.40;;;;;;;21.72;54.78;99611.24;105929;1254;62548;-82
2023/07/25 03:03:27;;;;;;;10.40;8.30;;;;;;;21.76;54.87;99614.92;106449;1254;60341;-87
2023/07/25 03:05:54;;;;;;;9.60;7.20;;;;;;;21.78;54.84;99613.89;105999;1258;60465;-89
2023/07/25 03:08:22;;;;;;;10.40;7.30;;;;;;;21.80;54.81;99611.39;106192;1253;72730;-91
2023/07/25 03:10:49;;;;;;;13.20;7.50;;;;;;;21.81;54.82;99612.09;106080;1252;61355;-87
2023/07/25 03:13:16;;;;;;;11.50;7.30;;;;;;;21.83;54.85;99606.14;106068;1251;73683;-85
2023/07/25 03:15:44;;;;;;;12.40;7.60;;;;;;;21.83;54.89;99607.55;105873;1251;60553;-85
2023/07/25 03:18:11;;;;;;;12.00;7.40;;;;;;;21.84;54.99;99606.96;106545;1260;60519;-86
2023/07/25 03:20:39;;;;;;;12.60;7.80;;;;;;;21.90;54.90;99607.33;106316;1251;63694;-84
2023/07/25 03:23:06;;;;;;;8.80;6.70;;;;;;;21.97;54.84;99611.34;106657;1251;61404;-83
2023/07/25 03:25:34;;;;;;;14.20;7.60;;;;;;;22.03;54.87;99606.42;106029;1257;63782;-89
2023/07/25 03:28:01;;;;;;;12.20;7.80;;;;;;;22.08;55.03;99605.77;106033;1251;60690;-87
2023/07/25 03:30:29;;;;;;;10.50;7.20;;;;;;;22.12;54.97;99602.28;105967;1254;60383;-87
2023/07/25 03:32:56;;;;;;;11.20;7.40;;;;;;;22.16;54.87;99596.94;106081;1251;63703;-89
2023/07/25 03:35:24;;;;;;;11.50;8.50;;;;;;;22.20;54.66;99588.86;106682;1257;61297;-86
2023/07/25 03:37:51;;;;;;;13.30;7.80;;;;;;;22.25;54.72;99590.10;105970;1251;63995;-84
2023/07/25 03:40:19;;;;;;;12.50;8.00;;;;;;;22.29;54.84;99588.44;106039;1254;60635;-90
2023/07/25 03:42:46;;;;;;;13.50;8.00;;;;;;;22.34;54.82;99589.48;106807;1253;60425;-88
2023/07/25 03:45:14;;;;;;;11.40;7.80;;;;;;;22.39;54.70;99590.68;106075;1251;65515;-83
2023/07/25 03:47:41;;;;;;;10.40;7.30;;;;;;;22.45;54.68;99586.69;107501;1251;60487;-81
2023/07/25 03:50:09;;;;;;;12.70;7.60;;;;;;;22.54;54.52;99583.37;106182;1254;64806;-84
2023/07/25 03:52:36;;;;;;;16.90;7.50;;;;;;;22.61;54.51;99585.70;106298;1251;60536;-88
2023/07/25 03:55:04;;;;;;;12.00;7.10;;;;;;;22.66;54.43;99583.86;105912;1251;60607;-88
2023/07/25 03:57:31;;;;;;;10.60;7.60;;;;;;;22.70;54.57;99576.58;106103;1251;64924;-89
2023/07/25 03:59:59;;;;;;;9.90;7.40;;;;;;;22.72;54.51;99577.21;106230;1251;60414;-84
2023/07/25 04:02:27;;;;;;;9.60;7.30;;;;;;;22.73;54.45;99580.41;106079;1251;62568;-82
2023/07/25 04:04:54;;;;;;;10.40;7.30;;;;;;;22.74;54.55;99584.02;106789;1254;60568;-88
2023/07/25 04:07:22;;;;;;;10.70;8.00;;;;;;;22.74;54.66;99590.05;106524;1251;60445;-88
2023/07/25 04:09:49;;;;;;;15.00;8.60;;;;;;;22.74;54.63;99591.13;106246;1252;65017;-84
2023/07/25 04:12:17;;;;;;;9.10;7.10;;;;;;;22.75;54.60;99595.17;106846;1257;61282;-85
2023/07/25 04:14:44;;;;;;;10.20;7.80;;;;;;;22.76;54.72;99592.05;106096;1254;63880;-88
2023/07/25 04:17:12;;;;;;;10.10;7.30;;;;;;;22.80;54.78;99581.45;106092;1251;60425;-86
2023/07/25 04:19:39;;;;;;;11.90;7.30;;;;;;;22.85;54.90;99584.73;106894;1257;60499;-84
2023/07/25 04:22:07;;;;;;;10.50;7.80;;;;;;;22.88;54.99;99584.71;106044;1252;64820;-87
2023/07/25 04:24:34;;;;;;;11.30;7.90;;;;;;;22.88;54.93;99580.95;106721;1258;61320;-85
2023/07/25 04:27:02;;;;;;;10.10;7.80;;;;;;;22.89;54.87;99582.98;106200;1251;62694;-83
2023/07/25 04:29:29;;;;;;;13.20;8.00;;;;;;;22.90;55.07;99586.44;107134;1254;60387;-87
2023/07/25 04:31:56;;;;;;;10.90;7.50;;;;;;;22.90;55.06;99583.38;106847;1251;60542;-85
2023/07/25 04:34:24;;;;;;;12.20;7.90;;;;;;;22.91;55.20;99578.54;106129;1251;63647;-87
2023/07/25 04:36:52;;;;;;;10.70;7.70;;;;;;;22.92;55.27;99575.25;106376;1256;61579;-87
2023/07/25 04:39:19;;;;;;;13.40;8.00;;;;;;;22.94;55.39;99568.27;106732;1251;63773;-83
2023/07/25 04:41:47;;;;;;;12.70;7.70;;;;;;;22.98;55.72;99569.95;107466;1251;60497;-86
2023/07/25 04:44:14;;;;;;;9.00;7.00;;;;;;;23.01;55.71;99571.11;106248;1251;60487;-86
2023/07/25 04:46:41;;;;;;;10.40;7.00;;;;;;;23.08;55.70;99568.04;106140;1251;63788;-84
2023/07/25 04:49:11;;;;;;;13.00;8.50;;;;;;;23.13;55.73;99574.05;106059;1251;60846;-88
2023/07/25 04:51:39;;;;;;;9.50;7.20;;;;;;;23.19;55.73;99578.20;106239;1251;62604;-86
2023/07/25 04:54:07;;;;;;;12.10;7.00;;;;;;;23.25;55.73;99579.73;106267;1256;60531;-83
2023/07/25 04:56:34;;;;;;;12.70;7.80;;;;;;;23.27;56.11;99578.52;106150;1254;60376;-89
2023/07/25 04:59:02;;;;;;;11.30;8.00;;;;;;;23.32;56.07;99574.64;106037;1251;64884;-88
2023/07/25 05:01:29;;;;;;;12.10;7.50;;;;;;;23.42;55.89;99566.38;106390;1257;60502;-86
2023/07/25 05:03:57;;;;;;;9.90;7.70;;;;;;;23.47;55.68;99561.27;106148;1254;63696;-85
2023/07/25 05:06:25;;;;;;;9.60;7.60;;;;;;;23.49;55.41;99557.06;106649;1251;60917;-85
2023/07/25 05:08:52;;;;;;;10.70;8.00;;;;;;;23.55;55.54;99553.19;106057;1258;60361;-91
2023/07/25 05:11:23;;;;;;;10.40;7.10;;;;;;;23.62;55.53;99547.88;106682;1254;65063;-88
2023/07/25 05:13:51;;;;;;;10.70;7.80;;;;;;;23.68;55.08;99546.96;106237;1261;60536;-87
2023/07/25 05:16:19;;;;;;;10.50;7.20;;;;;;;23.75;55.06;99547.25;105876;1254;63724;-87
2023/07/25 05:18:47;;;;;;;9.30;7.50;;;;;;;23.83;55.20;99547.68;105962;1254;60552;-87
2023/07/25 05:21:15;;;;;;;11.30;7.70;;;;;;;23.92;55.01;99546.30;107727;1253;60416;-82
2023/07/25 05:23:42;;;;;;;9.10;6.60;;;;;;;24.02;54.88;99544.01;106671;1254;64984;-89
2023/07/25 05:26:09;;;;;;;10.60;7.80;;;;;;;24.10;54.53;99540.50;106464;1251;61361;-84
2023/07/25 05:28:37;;;;;;;11.50;7.80;;;;;;;24.20;54.19;99536.74;106431;1254;62918;-88
2023/07/25 05:31:04;;;;;;;11.80;7.60;;;;;;;24.30;53.97;99536.54;105982;1254;60543;-92
2023/07/25 05:33:32;;;;;;;9.30;7.20;;;;;;;24.39;53.55;99531.75;106769;1252;60550;-84
2023/07/25 05:36:02;;;;;;;10.00;7.70;;;;;;;24.47;53.53;99531.19;106143;1251;64932;-88
2023/07/25 05:38:30;;;;;;;10.40;7.70;;;;;;;24.55;53.28;99533.42;106153;1253;60381;-87
2023/07/25 05:40:57;;;;;;;9.60;7.30;;;;;;;24.63;52.65;99530.75;106341;1251;63764;-85
2023/07/25 05:43:25;;;;;;;10.70;7.50;;;;;;;24.71;52.34;99525.80;106492;1251;60578;-88
2023/07/25 05:45:52;;;;;;;10.50;7.40;;;;;;;24.79;52.49;99526.19;106153;1252;60465;-88
2023/07/25 05:48:20;;;;;;;9.40;7.30;;;;;;;24.87;52.35;99524.86;106586;1251;63921;-93
2023/07/25 05:50:53;;;;;;;11.70;7.50;;;;;;;24.95;51.87;99527.02;106094;1251;61357;-80
2023/07/25 05:53:21;;;;;;;11.50;7.70;;;;;;;25.05;51.61;99522.19;106236;1254;63739;-81
2023/07/25 05:55:48;;;;;;;9.70;7.40;;;;;;;25.13;51.21;99517.55;107244;1256;60538;-81
2023/07/25 05:58:17;;;;;;;9.90;7.90;;;;;;;25.21;51.19;99515.87;106939;1251;60593;-82
2023/07/25 06:00:45;;;;;;;10.20;7.50;;;;;;;25.29;50.94;99511.68;107094;1251;64939;-83
2023/07/25 06:03:13;;;;;;;10.80;7.10;;;;;;;25.35;50.67;99507.55;106793;1253;60592;-84
2023/07/25 06:05:41;;;;;;;10.30;7.80;;;;;;;25.41;51.08;99506.10;106805;1253;62527;-85
2023/07/25 06:08:09;;;;;;;8.80;7.10;;;;;;;25.48;51.11;99506.49;106415;1251;60546;-85
2023/07/25 06:10:36;;;;;;;9.50;7.50;;;;;;;25.55;51.02;99510.39;106365;1254;60524;-81
2023/07/25 06:13:04;;;;;;;11.80;7.90;;;;;;;25.63;51.00;99510.41;106259;1251;63781;-87
2023/07/25 06:15:34;;;;;;;9.30;7.50;;;;;;;25.71;50.95;99510.51;106610;1251;61389;-87
2023/07/25 06:18:02;;;;;;;9.50;7.50;;;;;;;25.82;50.98;99508.56;106089;1253;63241;-89
2023/07/25 06:20:32;;;;;;;12.30;7.90;;;;;;;25.92;50.94;99505.73;105979;1253;60549;-88
2023/07/25 06:23:00;;;;;;;12.20;7.50;;;;;;;26.02;50.70;99504.48;106453;1251;60894;-85
2023/07/25 06:25:28;;;;;;;10.90;7.10;;;;;;;26.11;50.78;99506.62;106154;1251;64929;-83
2023/07/25 06:27:55;;;;;;;10.40;7.60;;;;;;;26.21;51.05;99507.85;106351;1251;61427;-89
2023/07/25 06:30:23;;;;;;;8.50;7.20;;;;;;;26.32;50.92;99502.84;107455;1251;65246;-83
2023/07/25 06:32:51;;;;;;;9.50;7.10;;;;;;;26.44;50.75;99499.98;107059;1253;59327;-86
2023/07/25 06:35:22;;;;;;;10.30;7.10;;;;;;;26.54;50.22;99495.85;106818;1251;60325;-88
2023/07/25 06:37:51;;;;;;;11.00;7.00;;;;;;;26.65;49.49;99496.33;107292;1251;64149;-88
2023/07/25 06:40:18;;;;;;;11.50;7.30;;;;;;;26.74;49.01;99487.48;106160;1251;63693;-88
2023/07/25 06:42:45;;;;;;;8.90;6.70;;;;;;;26.82;48.51;99480.35;106814;1256;62658;-88
2023/07/25 06:45:14;;;;;;;10.40;7.50;;;;;;;26.89;47.83;99479.04;106175;1254;60663;-88
2023/07/25 06:47:41;;;;;;;11.80;6.70;;;;;;;26.98;48.37;99482.27;106476;1251;342474;-87
2023/07/25 06:52:49;;;;;;;;;;;;;;;26.94;49.19;99477.02;104525;1292;600320;-83
2023/07/25 06:55:20;;;;;;;9.40;6.70;;;;;;;27.19;48.47;99468.73;107680;1266;58932;-84
2023/07/25 06:57:50;;;;;;;9.70;6.90;;;;;;;27.28;48.29;99469.98;105734;1266;59407;-85
2023/07/25 07:00:18;;;;;;;8.60;6.60;;;;;;;27.32;47.54;99462.27;106847;1266;63365;-87
2023/07/25 07:02:46;;;;;;;9.00;6.70;;;;;;;27.35;46.49;99463.00;105402;1266;61674;-82
2023/07/25 07:05:13;;;;;;;10.70;7.10;;;;;;;27.39;46.18;99464.23;105512;1269;274631;-85
2023/07/25 07:07:55;;;;;;;9.40;6.90;;;;;;;27.44;46.06;99462.77;107540;1262;59286;-85
2023/07/25 07:10:22;;;;;;;8.40;6.30;;;;;;;27.51;46.67;99458.34;107180;1263;59254;-84
2023/07/25 07:12:50;;;;;;;10.10;6.60;;;;;;;27.61;47.38;99449.56;107051;1265;62086;-87
2023/07/25 07:15:18;;;;;;;9.60;6.60;;;;;;;27.72;46.89;99450.77;107317;1266;61378;-86
2023/07/25 07:17:45;;;;;;;9.50;7.10;;;;;;;27.85;46.21;99444.48;107089;1265;62526;-82
2023/07/25 07:20:13;;;;;;;11.20;6.00;;;;;;;27.94;46.02;99444.31;107051;1263;59666;-84
2023/07/25 07:22:40;;;;;;;9.90;6.80;;;;;;;28.04;46.51;99440.16;106107;1264;60128;-91
2023/07/25 07:25:08;;;;;;;9.30;7.20;;;;;;;28.14;46.87;99436.75;105388;1268;62840;-89
2023/07/25 07:27:36;;;;;;;9.00;6.60;;;;;;;28.25;46.60;99431.23;105241;1268;61271;-82
2023/07/25 07:30:04;;;;;;;8.70;6.50;;;;;;;28.36;46.48;99428.21;105253;1266;63696;-87
2023/07/25 07:32:31;;;;;;;9.40;6.60;;;;;;;28.47;46.67;99425.39;105436;1266;59768;-86
2023/07/25 07:34:58;;;;;;;9.50;6.80;;;;;;;28.58;46.30;99421.11;106122;1266;59768;-89
2023/07/25 07:37:26;;;;;;;13.80;7.60;;;;;;;28.68;46.21;99414.39;105323;1268;63111;-85
2023/07/25 07:39:54;;;;;;;11.20;7.00;;;;;;;28.77;46.28;99411.06;105584;1268;60300;-84
2023/07/25 07:42:21;;;;;;;7.90;6.40;;;;;;;28.87;45.82;99409.19;105391;1266;74732;-84
2023/07/25 07:44:48;;;;;;;10.90;6.90;;;;;;;28.95;46.36;99411.36;106006;1261;59637;-90
2023/07/25 07:47:16;;;;;;;10.50;6.90;;;;;;;29.03;45.19;99414.36;106553;1260;59549;-89
2023/07/25 07:49:43;;;;;;;7.70;5.40;;;;;;;29.08;44.46;99415.13;105849;1262;63272;-88
2023/07/25 07:52:11;;;;;;;9.70;6.40;;;;;;;29.11;44.68;99406.24;106492;1260;61401;-83
2023/07/25 07:54:56;;;;;;;8.20;6.50;;;;;;;29.13;44.87;99404.63;105939;1256;63799;-85
2023/07/25 07:57:23;;;;;;;9.40;6.60;;;;;;;29.14;43.71;99403.55;105924;1257;59621;-84
2023/07/25 07:59:51;;;;;;;9.10;6.70;;;;;;;29.13;43.82;99405.98;105978;1258;59739;-86
2023/07/25 08:02:18;;;;;;;10.70;7.40;;;;;;;29.16;44.79;99405.83;105938;1263;62845;-86
2023/07/25 08:04:46;;;;;;;11.20;6.90;;;;;;;29.20;45.19;99404.92;105770;1262;60114;-87
2023/07/25 08:07:13;;;;;;;8.70;6.30;;;;;;;29.26;44.92;99402.55;106272;1256;62450;-84
2023/07/25 08:09:41;;;;;;;9.90;6.70;;;;;;;29.35;44.44;99399.46;105652;1257;59579;-82
2023/07/25 08:12:08;;;;;;;8.70;6.60;;;;;;;29.43;44.09;99398.20;106378;1257;59867;-85
2023/07/25 08:14:36;;;;;;;11.30;6.50;;;;;;;29.51;44.37;99398.70;105985;1258;64223;-84
2023/07/25 08:17:03;;;;;;;12.00;6.60;;;;;;;29.62;44.48;99401.50;105918;1262;60104;-83
2023/07/25 08:19:31;;;;;;;8.60;6.20;;;;;;;29.72;43.69;99398.35;106417;1259;63730;-82
2023/07/25 08:21:58;;;;;;;8.70;6.40;;;;;;;29.82;43.16;99402.05;105691;1261;59755;-86
2023/07/25 08:24:26;;;;;;;12.60;6.10;;;;;;;29.93;42.65;99401.86;106294;1262;59570;-85
2023/07/25 08:26:53;;;;;;;9.50;5.70;;;;;;;30.03;42.12;99395.98;106247;1256;64055;-86
2023/07/25 08:29:21;;;;;;;8.70;5.60;;;;;;;30.12;40.58;99395.73;107781;1259;60110;-82
2023/07/25 08:31:48;;;;;;;8.60;6.30;;;;;;;30.18;39.98;99389.46;105845;1262;63834;-87
2023/07/25 08:34:16;;;;;;;10.60;6.60;;;;;;;30.25;40.38;99384.49;105670;1264;59752;-85
2023/07/25 08:36:43;;;;;;;10.90;6.10;;;;;;;30.32;40.19;99384.80;106406;1261;59758;-85
2023/07/25 08:39:11;;;;;;;11.80;6.80;;;;;;;30.39;39.08;99389.77;106534;1256;63065;-84
2023/07/25 08:41:55;;;;;;;11.50;6.70;;;;;;;30.43;38.68;99385.98;105582;1261;60238;-85
2023/07/25 08:44:24;;;;;;;12.60;6.30;;;;;;;30.48;38.90;99384.42;106769;1256;63742;-84
2023/07/25 08:46:53;;;;;;;8.90;6.30;;;;;;;30.52;39.24;99376.27;107113;1258;59665;-85
2023/07/25 08:49:23;;;;;;;8.70;6.60;;;;;;;30.61;39.82;99377.39;106796;1257;59707;-85
2023/07/25 08:51:54;;;;;;;11.70;6.20;;;;;;;30.70;39.05;99374.36;107281;1261;62870;-85
2023/07/25 08:54:32;;;;;;;11.50;7.10;;;;;;;30.79;39.00;99375.83;107014;1257;60121;-86
2023/07/25 08:57:00;;;;;;;9.30;6.50;;;;;;;30.88;39.02;99374.09;106861;1262;63955;-86
2023/07/25 08:59:27;;;;;;;9.40;6.60;;;;;;;30.97;38.54;99366.77;108242;1256;59733;-82
2023/07/25 09:01:55;;;;;;;11.30;6.80;;;;;;;31.03;38.36;99365.10;107364;1256;58704;-84
2023/07/25 09:04:24;;;;;;;11.50;6.70;;;;;;;31.09;39.20;99357.77;107388;1260;64176;-83
2023/07/25 09:06:52;;;;;;;9.40;6.70;;;;;;;31.18;38.79;99360.30;107403;1256;60117;-84
2023/07/25 09:09:20;;;;;;;9.90;7.00;;;;;;;31.27;38.38;99360.29;107561;1262;62512;-84
2023/07/25 09:11:47;;;;;;;9.20;6.00;;;;;;;31.36;38.26;99356.19;107294;1259;59674;-85
2023/07/25 09:14:15;;;;;;;11.60;6.70;;;;;;;31.44;38.32;99358.50;107049;1262;59677;-84
2023/07/25 09:16:42;;;;;;;8.80;6.80;;;;;;;31.51;37.74;99357.84;107151;1256;64255;-86
2023/07/25 09:19:10;;;;;;;10.30;6.60;;;;;;;31.57;37.94;99356.83;107191;1256;61369;-84
2023/07/25 09:21:57;;;;;;;11.80;6.30;;;;;;;31.64;38.60;99353.27;107262;1260;71747;-84
2023/07/25 09:24:37;;;;;;;10.60;6.30;;;;;;;31.72;38.81;99343.30;109068;1257;57785;-82
2023/07/25 09:27:17;;;;;;;9.70;6.00;;;;;;;31.79;38.71;99345.17;109037;1256;57828;-85
2023/07/25 09:29:46;;;;;;;10.30;6.70;;;;;;;31.85;38.67;99341.20;107374;1257;63046;-84
2023/07/25 09:32:18;;;;;;;10.40;7.00;;;;;;;31.90;38.02;99341.89;106892;1256;60198;-86
2023/07/25 09:34:56;;;;;;;12.70;7.30;;;;;;;31.93;38.10;99339.08;106811;1257;62461;-82
2023/07/25 09:37:23;;;;;;;8.40;6.30;;;;;;;31.97;38.13;99339.64;106774;1259;59163;-84
2023/07/25 09:39:51;;;;;;;9.70;6.70;;;;;;;32.01;37.82;99338.27;106673;1262;59512;-85
2023/07/25 09:42:22;;;;;;;10.20;6.70;;;;;;;32.05;37.55;99335.80;106548;1256;64148;-82
2023/07/25 09:44:51;;;;;;;9.60;6.50;;;;;;;32.07;36.95;99338.19;106195;1257;61380;-84
2023/07/25 09:47:23;;;;;;;9.20;6.90;;;;;;;32.09;36.87;99335.39;106768;1257;62479;-82
2023/07/25 09:49:51;;;;;;;8.10;6.10;;;;;;;32.11;36.97;99326.60;106444;1257;59749;-85
2023/07/25 09:52:19;;;;;;;8.80;7.10;;;;;;;32.15;36.22;99323.45;106785;1257;59532;-84
2023/07/25 09:54:46;;;;;;;9.00;6.80;;;;;;;32.17;35.94;99321.89;106908;1262;64211;-85
2023/07/25 09:57:14;;;;;;;11.10;6.80;;;;;;;32.22;36.28;99320.95;107296;1254;61404;-85
2023/07/25 09:59:41;;;;;;;10.90;7.20;;;;;;;32.28;35.68;99319.41;106781;1258;62554;-84
2023/07/25 10:02:10;;;;;;;12.30;6.80;;;;;;;32.35;35.59;99323.56;107758;1255;59712;-82
2023/07/25 10:04:38;;;;;;;10.90;7.00;;;;;;;32.43;35.23;99317.34;107027;1256;59769;-82
2023/07/25 10:07:05;;;;;;;9.90;7.00;;;;;;;32.49;35.74;99317.09;106892;1254;64138;-85
2023/07/25 10:09:33;;;;;;;9.50;7.10;;;;;;;32.57;35.86;99317.27;107143;1253;60096;-85
2023/07/25 10:12:19;;;;;;;11.00;6.50;;;;;;;32.68;35.45;99316.80;106852;1257;64386;-84
2023/07/25 10:14:46;;;;;;;9.40;6.70;;;;;;;32.77;35.16;99311.59;107287;1254;59650;-86
2023/07/25 10:17:14;;;;;;;10.20;6.60;;;;;;;32.84;34.37;99306.35;107220;1257;60519;-85
2023/07/25 10:19:52;;;;;;;11.40;7.10;;;;;;;32.88;34.63;99317.39;107776;1253;64657;-86
2023/07/25 10:22:33;;;;;;;11.70;6.90;;;;;;;32.97;34.00;99319.45;108210;1254;61630;-84
2023/07/25 10:25:01;;;;;;;8.40;6.70;;;;;;;33.00;33.27;99318.20;106316;1257;63854;-85
2023/07/25 10:27:29;;;;;;;9.30;7.00;;;;;;;32.96;33.92;99317.17;106150;1255;59696;-87
2023/07/25 10:30:01;;;;;;;9.60;6.30;;;;;;;32.97;34.38;99314.27;106040;1257;60889;-88
2023/07/25 10:32:58;;;;;;;11.30;6.80;;;;;;;33.03;34.96;99312.64;106758;1252;62976;-85
2023/07/25 10:35:44;;;;;;;9.20;7.00;;;;;;;33.08;34.46;99311.08;106173;1258;60598;-88
2023/07/25 10:38:32;;;;;;;9.70;7.10;;;;;;;33.11;35.60;99308.40;106507;1253;63832;-85
2023/07/25 10:41:09;;;;;;;16.90;8.80;;;;;;;33.18;35.78;99312.17;106227;1254;59805;-87
2023/07/25 10:43:48;;;;;;;12.00;7.90;;;;;;;33.26;34.84;99313.70;106836;1257;59650;-87
2023/07/25 10:46:24;;;;;;;11.50;8.20;;;;;;;33.26;34.28;99310.69;106257;1255;62924;-86
2023/07/25 10:48:53;;;;;;;11.20;8.00;;;;;;;33.19;34.55;99301.65;106678;1254;61635;-86
2023/07/25 10:51:21;;;;;;;10.20;7.40;;;;;;;33.14;34.66;99301.50;106216;1256;63895;-91
2023/07/25 10:54:09;;;;;;;12.10;8.00;;;;;;;33.14;35.16;99307.61;106733;1257;59718;-84
2023/07/25 10:56:38;;;;;;;14.30;9.10;;;;;;;33.13;35.56;99301.95;106470;1253;59501;-87
2023/07/25 10:59:06;;;;;;;12.40;7.70;;;;;;;33.12;35.47;99297.66;107947;1254;75474;-83
2023/07/25 11:01:44;;;;;;;10.30;8.10;;;;;;;33.12;35.80;99291.83;109355;1252;60293;-85
2023/07/25 11:04:22;;;;;;;11.60;8.60;;;;;;;33.12;36.29;99286.88;109351;1254;62532;-87
2023/07/25 11:06:51;;;;;;;12.60;8.90;;;;;;;33.14;36.15;99281.93;108545;1254;59193;-87
2023/07/25 11:09:22;;;;;;;11.10;8.20;;;;;;;33.22;36.79;99278.66;106093;1258;60474;-86
2023/07/25 11:11:53;;;;;;;12.00;8.10;;;;;;;33.34;36.58;99274.67;106131;1266;65033;-86
2023/07/25 11:14:21;;;;;;;11.90;9.10;;;;;;;33.42;36.58;99266.45;106842;1254;61520;-81
2023/07/25 11:16:49;;;;;;;11.10;8.00;;;;;;;33.52;37.09;99264.19;106043;1253;66016;-84
2023/07/25 11:19:18;;;;;;;13.30;8.50;;;;;;;33.64;37.39;99262.27;107326;1254;60445;-88
2023/07/25 11:21:46;;;;;;;10.70;7.70;;;;;;;33.78;36.97;99254.42;106479;1254;60615;-86
2023/07/25 11:24:14;;;;;;;13.40;9.00;;;;;;;33.90;36.49;99252.91;106087;1254;65128;-82
2023/07/25 11:26:43;;;;;;;17.10;10.10;;;;;;;33.97;36.59;99251.34;106729;1254;60363;-89
2023/07/25 11:29:12;;;;;;;12.00;9.20;;;;;;;34.04;35.93;99242.73;106026;1253;64134;-92